Tampa, Florida
Traffic Map
Current Weather Conditions
Tampa, Florida
Few Clouds
Few Clouds
79°
Feels Like: 82°
Wind Chill: 79° Ceiling: Unl
Heat Index: 82° Visibility: 10mi
Dew Point: 74° Wind: 0mph
Humidity: 84% Direction: ° ()
Pressure: 30.04in Gusts: 0mph
Raw Report DataKTPA 310953Z 00000KT 10SM FEW200 26/23 A3004 RMK AO2 SLP171 T02610233
Traffic Incident Summary
Active as of:
Severity:
Category:
InformationThere was an issue retrieving the traffic information for this location. Please try a different location or try again shortly.
Advertisements
Track Severe Weather on mobile